Time;durP1;ratioP1;P1;durP2;ratioP2;P2;SDS_P1;SDS_P2;PMS_P1;PMS_P2;Temp;Humidity;BMP_temperature;BMP_pressure;BME280_temperature;BME280_humidity;BME280_pressure;Samples;Min_cycle;Max_cycle;Signal;HPM_P1;HPM_P2
2022/10/11 00:01:18;;;;;;;12.23;6.50;;;;;;;;;;5052434;28;20140;-66
2022/10/11 00:03:45;;;;;;;17.10;6.75;;;;;;;;;;5052629;28;20511;-65
2022/10/11 00:06:11;;;;;;;11.60;6.93;;;;;;;;;;5052560;28;20080;-66
2022/10/11 00:08:38;;;;;;;15.75;8.00;;;;;;;;;;5051823;28;20084;-66
2022/10/11 00:11:06;;;;;;;14.63;7.60;;;;;;;;;;5052514;28;20052;-66
2022/10/11 00:13:33;;;;;;;20.15;8.15;;;;;;;;;;5052489;28;20072;-66
2022/10/11 00:15:59;;;;;;;13.93;8.38;;;;;;;;;;5052427;28;20099;-66
2022/10/11 00:18:26;;;;;;;14.63;8.52;;;;;;;;;;5051787;28;20132;-66
2022/10/11 00:21:08;;;;;;;22.25;9.80;;;;;;;;;;5051973;28;20060;-64
2022/10/11 00:23:34;;;;;;;15.93;9.30;;;;;;;;;;5052124;28;20083;-66
2022/10/11 00:26:03;;;;;;;16.88;8.40;;;;;;;;;;5052243;28;20556;-65
2022/10/11 00:28:31;;;;;;;17.88;9.57;;;;;;;;;;5051604;28;20052;-65
2022/10/11 00:30:57;;;;;;;18.13;8.35;;;;;;;;;;5052067;28;20053;-64
2022/10/11 00:33:24;;;;;;;17.13;9.88;;;;;;;;;;5052003;28;20417;-65
2022/10/11 00:35:51;;;;;;;18.23;10.13;;;;;;;;;;5052267;28;20095;-65
2022/10/11 00:38:17;;;;;;;17.88;10.82;;;;;;;;;;5051564;28;20080;-66
2022/10/11 00:40:44;;;;;;;22.02;11.15;;;;;;;;;;5051935;28;20076;-64
2022/10/11 00:43:19;;;;;;;21.55;11.60;;;;;;;;;;5051729;28;20088;-65
2022/10/11 00:45:48;;;;;;;21.67;10.60;;;;;;;;;;5051940;28;20083;-64
2022/10/11 00:48:35;;;;;;;22.20;9.38;;;;;;;;;;5051424;28;20140;-65
2022/10/11 00:51:05;;;;;;;16.88;9.45;;;;;;;;;;5036735;28;20053;-65
2022/10/11 00:53:33;;;;;;;17.33;9.65;;;;;;;;;;5050830;28;20041;-65
2022/10/11 00:56:11;;;;;;;19.77;10.02;;;;;;;;;;5050158;28;20102;-65
2022/10/11 00:58:38;;;;;;;16.60;9.13;;;;;;;;;;5049928;28;20110;-65
2022/10/11 01:01:04;;;;;;;20.48;9.55;;;;;;;;;;5051858;28;20473;-65
2022/10/11 01:03:31;;;;;;;16.85;8.70;;;;;;;;;;5051609;28;20052;-65
2022/10/11 01:05:58;;;;;;;17.30;8.32;;;;;;;;;;5050563;28;20049;-64
2022/10/11 01:08:25;;;;;;;15.10;8.27;;;;;;;;;;5051200;28;20095;-65
2022/10/11 01:10:51;;;;;;;14.73;8.07;;;;;;;;;;5050357;28;20049;-65
2022/10/11 01:13:55;;;;;;;19.50;9.10;;;;;;;;;;5051601;28;20496;-66
2022/10/11 01:16:29;;;;;;;18.00;8.52;;;;;;;;;;5051728;28;20498;-65
2022/10/11 01:18:59;;;;;;;17.63;8.18;;;;;;;;;;5049977;28;20531;-65
2022/10/11 01:21:31;;;;;;;15.30;8.40;;;;;;;;;;5051487;28;20072;-65
2022/10/11 01:24:07;;;;;;;17.55;9.02;;;;;;;;;;5051204;28;20102;-65
2022/10/11 01:26:51;;;;;;;15.70;8.88;;;;;;;;;;5051992;28;20049;-65
2022/10/11 01:29:36;;;;;;;14.02;8.75;;;;;;;;;;5034170;28;20053;-65
2022/10/11 01:32:08;;;;;;;14.25;7.88;;;;;;;;;;5051347;28;20053;-65
2022/10/11 01:34:45;;;;;;;15.13;9.27;;;;;;;;;;5051475;28;20080;-65
2022/10/11 01:37:30;;;;;;;13.05;8.00;;;;;;;;;;5050370;28;20120;-66
2022/10/11 01:40:12;;;;;;;16.05;8.90;;;;;;;;;;5050677;28;20053;-65
2022/10/11 01:42:39;;;;;;;13.85;8.18;;;;;;;;;;5034426;28;20049;-65
2022/10/11 01:45:08;;;;;;;16.88;9.88;;;;;;;;;;5033837;28;20080;-65
2022/10/11 01:47:34;;;;;;;24.55;11.70;;;;;;;;;;5033935;28;20480;-66
2022/10/11 01:50:02;;;;;;;20.88;9.90;;;;;;;;;;5050545;28;20144;-66
2022/10/11 01:52:31;;;;;;;24.80;12.77;;;;;;;;;;5051277;28;20460;-65
2022/10/11 01:55:03;;;;;;;27.85;14.02;;;;;;;;;;5033715;28;20550;-64
2022/10/11 01:57:53;;;;;;;21.52;12.80;;;;;;;;;;5051408;28;20048;-65
2022/10/11 02:00:23;;;;;;;20.98;13.10;;;;;;;;;;5051220;28;20045;-66
2022/10/11 02:03:14;;;;;;;22.58;13.35;;;;;;;;;;5049993;28;20088;-64
2022/10/11 02:05:58;;;;;;;23.35;13.07;;;;;;;;;;5051311;28;20075;-64
2022/10/11 02:08:49;;;;;;;26.63;13.85;;;;;;;;;;5051046;28;20084;-65
2022/10/11 02:11:27;;;;;;;25.77;15.02;;;;;;;;;;5053459;28;20073;-64
2022/10/11 02:13:58;;;;;;;29.13;14.25;;;;;;;;;;5037184;28;20085;-64
2022/10/11 02:16:27;;;;;;;24.30;14.18;;;;;;;;;;5053514;28;20107;-64
2022/10/11 02:18:54;;;;;;;25.35;14.93;;;;;;;;;;5036719;28;20077;-64
2022/10/11 02:21:21;;;;;;;31.10;16.10;;;;;;;;;;5036434;28;20091;-66
2022/10/11 02:24:03;;;;;;;36.55;17.27;;;;;;;;;;5052952;28;20575;-65
2022/10/11 02:26:30;;;;;;;35.58;18.20;;;;;;;;;;5053181;28;20088;-66
2022/10/11 02:28:59;;;;;;;35.15;19.00;;;;;;;;;;5036204;28;20055;-66
2022/10/11 02:31:28;;;;;;;39.38;19.83;;;;;;;;;;5053241;28;20144;-64
2022/10/11 02:34:25;;;;;;;37.53;19.63;;;;;;;;;;5036693;28;20140;-65
2022/10/11 02:37:15;;;;;;;31.88;18.15;;;;;;;;;;5053690;28;20079;-65
2022/10/11 02:40:05;;;;;;;32.17;17.15;;;;;;;;;;5053543;28;20524;-66
2022/10/11 02:42:36;;;;;;;40.47;19.85;;;;;;;;;;5053050;28;20136;-66
2022/10/11 02:45:15;;;;;;;29.95;17.92;;;;;;;;;;5036510;28;20530;-65
2022/10/11 02:47:41;;;;;;;33.28;19.75;;;;;;;;;;5037090;28;20463;-64
2022/10/11 02:50:10;;;;;;;37.83;18.45;;;;;;;;;;5052486;28;20416;-65
2022/10/11 02:52:37;;;;;;;33.63;19.40;;;;;;;;;;5054005;28;20045;-64
2022/10/11 02:55:05;;;;;;;34.13;19.00;;;;;;;;;;5053904;28;20049;-65
2022/10/11 02:57:31;;;;;;;30.77;19.23;;;;;;;;;;5054053;28;20049;-66
2022/10/11 02:59:58;;;;;;;40.42;19.02;;;;;;;;;;5052944;28;20044;-65
2022/10/11 03:02:25;;;;;;;40.65;20.13;;;;;;;;;;5053593;28;20045;-65
2022/10/11 03:04:51;;;;;;;41.35;19.80;;;;;;;;;;5053538;28;20102;-65
2022/10/11 03:07:18;;;;;;;35.45;20.67;;;;;;;;;;5053640;28;20049;-65
2022/10/11 03:09:44;;;;;;;38.88;21.00;;;;;;;;;;5052788;28;20496;-65
2022/10/11 03:12:11;;;;;;;38.15;20.08;;;;;;;;;;5053772;28;20044;-64
2022/10/11 03:14:38;;;;;;;31.70;19.77;;;;;;;;;;5053434;28;20087;-65
2022/10/11 03:17:09;;;;;;;42.10;20.67;;;;;;;;;;5053550;28;20470;-65
2022/10/11 03:19:55;;;;;;;41.05;20.95;;;;;;;;;;5051646;28;20139;-65
2022/10/11 03:22:22;;;;;;;37.00;20.98;;;;;;;;;;5053420;28;20140;-64
2022/10/11 03:24:49;;;;;;;37.35;20.58;;;;;;;;;;5053260;28;20162;-65
2022/10/11 03:27:15;;;;;;;43.58;22.38;;;;;;;;;;5053602;28;20476;-66
2022/10/11 03:29:42;;;;;;;42.20;21.17;;;;;;;;;;5052570;28;20468;-65
2022/10/11 03:32:08;;;;;;;44.33;21.85;;;;;;;;;;5053026;28;20144;-65
2022/10/11 03:34:35;;;;;;;40.55;21.42;;;;;;;;;;5052853;28;20086;-66
2022/10/11 03:37:02;;;;;;;43.45;22.55;;;;;;;;;;5053002;28;20110;-67
2022/10/11 03:39:28;;;;;;;48.75;22.75;;;;;;;;;;5052338;28;20129;-65
2022/10/11 03:41:55;;;;;;;40.08;20.65;;;;;;;;;;5052987;28;20087;-66
2022/10/11 03:44:22;;;;;;;45.05;22.45;;;;;;;;;;5052640;28;20129;-67
2022/10/11 03:46:49;;;;;;;50.75;23.30;;;;;;;;;;5052776;28;20076;-66
2022/10/11 03:49:15;;;;;;;41.75;22.33;;;;;;;;;;5052463;28;20184;-67
2022/10/11 03:51:42;;;;;;;50.13;23.90;;;;;;;;;;5052651;28;20416;-66
2022/10/11 03:54:08;;;;;;;44.30;22.42;;;;;;;;;;5052641;28;20080;-65
2022/10/11 03:56:35;;;;;;;41.35;21.05;;;;;;;;;;5052586;28;20107;-66
2022/10/11 03:59:02;;;;;;;38.45;21.27;;;;;;;;;;5051945;28;20144;-66
2022/10/11 04:01:29;;;;;;;43.30;22.55;;;;;;;;;;5052435;28;20073;-64
2022/10/11 04:03:56;;;;;;;39.65;20.98;;;;;;;;;;5052210;28;20045;-67
2022/10/11 04:06:22;;;;;;;42.38;21.55;;;;;;;;;;5052351;28;20086;-65
2022/10/11 04:08:49;;;;;;;41.03;21.75;;;;;;;;;;5051988;28;20044;-66
2022/10/11 04:11:16;;;;;;;37.92;20.27;;;;;;;;;;5052225;28;20085;-66
2022/10/11 04:13:42;;;;;;;42.17;21.13;;;;;;;;;;5052195;28;20118;-66
2022/10/11 04:16:09;;;;;;;38.60;20.98;;;;;;;;;;5052092;28;20486;-65
2022/10/11 04:18:35;;;;;;;44.30;22.42;;;;;;;;;;5051350;28;20132;-65
2022/10/11 04:21:02;;;;;;;46.30;23.20;;;;;;;;;;5052204;28;20076;-66
2022/10/11 04:23:30;;;;;;;31.17;20.95;;;;;;;;;;5050921;28;20131;-64
2022/10/11 04:25:56;;;;;;;40.47;21.30;;;;;;;;;;5052019;28;20531;-66
2022/10/11 04:28:23;;;;;;;32.90;19.58;;;;;;;;;;5051331;28;20073;-65
2022/10/11 04:30:50;;;;;;;41.50;22.80;;;;;;;;;;5051178;28;20539;-65
2022/10/11 04:33:18;;;;;;;41.65;22.42;;;;;;;;;;5052067;28;20045;-65
2022/10/11 04:35:44;;;;;;;38.10;22.33;;;;;;;;;;5052043;28;20107;-65
2022/10/11 04:38:11;;;;;;;40.38;21.80;;;;;;;;;;5051410;28;20140;-65
2022/10/11 04:40:38;;;;;;;43.53;22.10;;;;;;;;;;5051663;28;20095;-65
2022/10/11 04:43:05;;;;;;;43.25;22.30;;;;;;;;;;5051748;28;20049;-66
2022/10/11 04:45:32;;;;;;;39.25;20.85;;;;;;;;;;5051648;28;20084;-65
2022/10/11 04:47:58;;;;;;;43.58;22.67;;;;;;;;;;5051474;28;20099;-66
2022/10/11 04:50:25;;;;;;;39.67;21.83;;;;;;;;;;5051672;28;20079;-66
2022/10/11 04:52:52;;;;;;;48.22;24.40;;;;;;;;;;5034231;28;20084;-64
2022/10/11 04:55:18;;;;;;;45.25;23.77;;;;;;;;;;5051799;28;20152;-65
2022/10/11 04:57:45;;;;;;;47.03;22.73;;;;;;;;;;5051300;28;20095;-66
2022/10/11 05:00:13;;;;;;;44.20;23.02;;;;;;;;;;5051206;28;20083;-65
2022/10/11 05:02:40;;;;;;;37.20;21.25;;;;;;;;;;5051764;28;20086;-66
2022/10/11 05:05:07;;;;;;;38.53;22.63;;;;;;;;;;5051517;28;20088;-65
2022/10/11 05:07:33;;;;;;;37.03;20.05;;;;;;;;;;5051681;28;20088;-66
2022/10/11 05:10:00;;;;;;;42.08;23.35;;;;;;;;;;5051519;28;20091;-65
2022/10/11 05:12:27;;;;;;;46.13;23.02;;;;;;;;;;5051368;28;20049;-65
2022/10/11 05:14:53;;;;;;;42.33;22.55;;;;;;;;;;5050991;28;20452;-66
2022/10/11 05:17:20;;;;;;;38.55;22.02;;;;;;;;;;5051064;28;20144;-65
2022/10/11 05:19:46;;;;;;;41.95;21.67;;;;;;;;;;5050800;28;20216;-64
2022/10/11 05:22:13;;;;;;;37.25;20.92;;;;;;;;;;5051370;28;20081;-65
2022/10/11 05:24:39;;;;;;;41.97;21.40;;;;;;;;;;5051310;28;20466;-65
2022/10/11 05:27:06;;;;;;;37.10;20.58;;;;;;;;;;5051394;28;20136;-65
2022/10/11 05:29:33;;;;;;;38.30;20.35;;;;;;;;;;5049382;28;20504;-65
2022/10/11 05:31:59;;;;;;;37.42;20.70;;;;;;;;;;5051598;28;20072;-65
2022/10/11 05:34:26;;;;;;;36.75;19.95;;;;;;;;;;5051270;28;20077;-66
2022/10/11 05:36:52;;;;;;;33.38;20.60;;;;;;;;;;5051370;28;20095;-65
2022/10/11 05:39:19;;;;;;;39.53;20.73;;;;;;;;;;5050618;28;20087;-65
2022/10/11 05:41:46;;;;;;;35.83;19.77;;;;;;;;;;5051868;28;20083;-65
2022/10/11 05:44:12;;;;;;;35.20;19.15;;;;;;;;;;5053963;28;20072;-65
2022/10/11 05:46:39;;;;;;;36.28;19.95;;;;;;;;;;5055467;28;20044;-66
2022/10/11 05:49:05;;;;;;;39.70;20.25;;;;;;;;;;5053308;28;20085;-66
2022/10/11 05:51:32;;;;;;;34.25;19.73;;;;;;;;;;5054803;28;20102;-65
2022/10/11 05:53:59;;;;;;;37.30;21.17;;;;;;;;;;5054840;28;20077;-65
2022/10/11 05:56:25;;;;;;;36.42;20.65;;;;;;;;;;5054625;28;20092;-64
2022/10/11 05:58:53;;;;;;;37.40;19.52;;;;;;;;;;5054412;28;20472;-66
2022/10/11 06:01:26;;;;;;;;;;;;;;;;;;5055318;28;20068;-65
2022/10/11 06:03:53;;;;;;;38.45;21.65;;;;;;;;;;5054553;28;19956;-65
2022/10/11 06:06:19;;;;;;;34.70;21.27;;;;;;;;;;5054558;28;20140;-64
2022/10/11 06:08:46;;;;;;;34.13;19.52;;;;;;;;;;5053896;28;20083;-66
2022/10/11 06:11:24;;;;;;;45.90;19.85;;;;;;;;;;5053500;28;20111;-65
2022/10/11 06:13:52;;;;;;;33.08;19.98;;;;;;;;;;5054539;28;20496;-66
2022/10/11 06:16:19;;;;;;;33.17;19.08;;;;;;;;;;5054477;28;20080;-65
2022/10/11 06:18:46;;;;;;;34.70;18.42;;;;;;;;;;5053779;28;20076;-64
2022/10/11 06:21:14;;;;;;;36.15;18.88;;;;;;;;;;5054198;28;20091;-65
2022/10/11 06:23:40;;;;;;;30.65;17.90;;;;;;;;;;5054159;28;20535;-65
2022/10/11 06:26:07;;;;;;;31.80;18.05;;;;;;;;;;5054332;28;20481;-66
2022/10/11 06:28:35;;;;;;;30.40;17.38;;;;;;;;;;5053693;28;20072;-65
2022/10/11 06:31:04;;;;;;;29.83;17.20;;;;;;;;;;5054057;28;20055;-64
2022/10/11 06:33:30;;;;;;;27.42;18.15;;;;;;;;;;5054076;28;20095;-65
2022/10/11 06:35:58;;;;;;;27.88;17.88;;;;;;;;;;5054055;28;20466;-66
2022/10/11 06:38:25;;;;;;;31.50;18.17;;;;;;;;;;5053799;28;20558;-65
2022/10/11 06:40:52;;;;;;;27.65;17.05;;;;;;;;;;5053996;28;20092;-66
2022/10/11 06:43:19;;;;;;;29.08;18.58;;;;;;;;;;5054050;28;20087;-64
2022/10/11 06:45:45;;;;;;;23.50;16.75;;;;;;;;;;5055716;28;20053;-66
2022/10/11 06:48:12;;;;;;;26.35;16.83;;;;;;;;;;5060917;28;20084;-66
2022/10/11 06:50:38;;;;;;;32.10;18.50;;;;;;;;;;5059511;28;20111;-66
2022/10/11 06:53:25;;;;;;;28.20;16.45;;;;;;;;;;5057600;28;20051;-65
2022/10/11 06:55:52;;;;;;;27.58;16.58;;;;;;;;;;5059233;28;20053;-66
2022/10/11 06:58:18;;;;;;;29.65;17.08;;;;;;;;;;5058023;28;20459;-66
2022/10/11 07:00:45;;;;;;;28.02;16.80;;;;;;;;;;5060317;28;20052;-65
2022/10/11 07:03:12;;;;;;;22.90;14.93;;;;;;;;;;5060052;28;20049;-66
2022/10/11 07:05:38;;;;;;;31.05;17.75;;;;;;;;;;5057638;28;20049;-67
2022/10/11 07:08:05;;;;;;;27.88;16.33;;;;;;;;;;5056642;28;20098;-65
2022/10/11 07:10:31;;;;;;;27.30;16.85;;;;;;;;;;5059159;28;20496;-65
2022/10/11 07:12:58;;;;;;;27.20;16.45;;;;;;;;;;5057217;28;20076;-66
2022/10/11 07:15:24;;;;;;;25.08;16.38;;;;;;;;;;5056562;28;20041;-66
2022/10/11 07:17:51;;;;;;;25.38;16.38;;;;;;;;;;5059887;28;20076;-64
2022/10/11 07:20:18;;;;;;;26.48;15.88;;;;;;;;;;5064520;28;20474;-66
2022/10/11 07:22:44;;;;;;;24.65;15.68;;;;;;;;;;5061981;28;20056;-65
2022/10/11 07:25:11;;;;;;;26.60;15.85;;;;;;;;;;5058493;28;20068;-65
2022/10/11 07:27:37;;;;;;;25.17;15.75;;;;;;;;;;5061328;28;20060;-64
2022/10/11 07:30:05;;;;;;;24.23;15.38;;;;;;;;;;5067911;28;20052;-66
2022/10/11 07:32:31;;;;;;;28.15;16.55;;;;;;;;;;5071288;28;20052;-65
2022/10/11 07:34:58;;;;;;;26.38;16.23;;;;;;;;;;5066901;28;20055;-64
2022/10/11 07:37:24;;;;;;;24.40;15.15;;;;;;;;;;5070995;28;20075;-63
2022/10/11 07:39:51;;;;;;;22.63;14.00;;;;;;;;;;5066910;28;20056;-64
2022/10/11 07:42:17;;;;;;;20.10;13.95;;;;;;;;;;5072964;28;20060;-66
2022/10/11 07:44:44;;;;;;;25.85;14.73;;;;;;;;;;5072560;28;20056;-63
2022/10/11 07:47:11;;;;;;;26.88;14.52;;;;;;;;;;5058037;28;20084;-66
2022/10/11 07:49:37;;;;;;;26.65;14.55;;;;;;;;;;5052798;28;20065;-66
2022/10/11 07:52:04;;;;;;;23.52;15.35;;;;;;;;;;5053559;28;20087;-66
2022/10/11 07:54:32;;;;;;;25.50;14.20;;;;;;;;;;5052895;28;20080;-66
2022/10/11 07:56:59;;;;;;;27.13;15.77;;;;;;;;;;5053157;28;20139;-65
2022/10/11 07:59:25;;;;;;;28.60;16.75;;;;;;;;;;5052044;28;20087;-66
2022/10/11 08:01:52;;;;;;;27.45;15.07;;;;;;;;;;5053098;28;20049;-67
2022/10/11 08:04:20;;;;;;;21.08;14.57;;;;;;;;;;5052945;28;20049;-65
2022/10/11 08:06:46;;;;;;;25.73;14.45;;;;;;;;;;5051785;28;20122;-65
2022/10/11 08:09:18;;;;;;;22.13;14.73;;;;;;;;;;5052074;28;20457;-64
2022/10/11 08:11:45;;;;;;;23.88;14.57;;;;;;;;;;5052369;28;20068;-66
2022/10/11 08:14:12;;;;;;;23.67;14.75;;;;;;;;;;5052244;28;20529;-66
2022/10/11 08:16:38;;;;;;;26.02;14.68;;;;;;;;;;5052189;28;20099;-66
2022/10/11 08:19:05;;;;;;;25.13;14.25;;;;;;;;;;5051661;28;20084;-65
2022/10/11 08:21:32;;;;;;;22.70;13.52;;;;;;;;;;5052273;28;20077;-65
2022/10/11 08:24:01;;;;;;;23.42;15.38;;;;;;;;;;5052044;28;20045;-65
2022/10/11 08:26:28;;;;;;;25.70;15.50;;;;;;;;;;5050851;28;20472;-65
2022/10/11 08:28:55;;;;;;;28.42;15.50;;;;;;;;;;5051639;28;20222;-66
2022/10/11 08:31:21;;;;;;;23.88;14.27;;;;;;;;;;5051103;28;20053;-65
2022/10/11 08:33:48;;;;;;;27.00;14.98;;;;;;;;;;5052107;28;20088;-65
2022/10/11 08:36:14;;;;;;;22.95;13.32;;;;;;;;;;5051847;28;20080;-65
2022/10/11 08:38:41;;;;;;;23.85;14.30;;;;;;;;;;5051220;28;20123;-65
2022/10/11 08:41:39;;;;;;;22.65;13.85;;;;;;;;;;5051849;28;20061;-65
2022/10/11 08:44:15;;;;;;;22.27;14.43;;;;;;;;;;5050777;28;20483;-65
2022/10/11 08:46:43;;;;;;;23.55;13.43;;;;;;;;;;5051691;28;20089;-64
2022/10/11 08:49:09;;;;;;;23.85;14.90;;;;;;;;;;5033578;28;20049;-65
2022/10/11 08:51:42;;;;;;;24.85;14.75;;;;;;;;;;5033994;28;20578;-66
2022/10/11 08:54:22;;;;;;;25.30;15.70;;;;;;;;;;5034225;28;20092;-66
2022/10/11 08:56:48;;;;;;;20.83;14.77;;;;;;;;;;5035111;28;20106;-65
2022/10/11 08:59:31;;;;;;;23.42;15.00;;;;;;;;;;5033435;28;20081;-66
2022/10/11 09:02:17;;;;;;;;;;;;;;;;;;5034622;28;20049;-65
2022/10/11 09:04:45;;;;;;;20.63;13.38;;;;;;;;;;5051615;28;19971;-66
2022/10/11 09:07:39;;;;;;;19.35;15.30;;;;;;;;;;5050353;28;20163;-65
2022/10/11 09:10:27;;;;;;;27.25;14.45;;;;;;;;;;5050804;28;20088;-64
2022/10/11 09:13:19;;;;;;;28.98;14.63;;;;;;;;;;5050424;28;20088;-65
2022/10/11 09:15:51;;;;;;;27.85;15.32;;;;;;;;;;5051614;28;20080;-65
2022/10/11 09:18:20;;;;;;;27.63;14.60;;;;;;;;;;5053114;28;20088;-65
2022/10/11 09:20:52;;;;;;;28.55;14.07;;;;;;;;;;5055211;28;20088;-65
2022/10/11 09:23:24;;;;;;;22.73;13.68;;;;;;;;;;5038130;28;20106;-64
2022/10/11 09:25:54;;;;;;;20.30;13.70;;;;;;;;;;5065562;22;20041;-66
2022/10/11 09:28:49;;;;;;;22.23;13.27;;;;;;;;;;5013710;28;20053;-66
2022/10/11 09:31:16;;;;;;;20.13;12.90;;;;;;;;;;5013366;28;20103;-66
2022/10/11 09:33:46;;;;;;;19.75;11.82;;;;;;;;;;5015698;28;20077;-67
2022/10/11 09:36:33;;;;;;;18.95;12.82;;;;;;;;;;5015697;28;20053;-63
2022/10/11 09:39:21;;;;;;;22.02;12.27;;;;;;;;;;5013431;28;20053;-64
2022/10/11 09:41:50;;;;;;;17.55;12.07;;;;;;;;;;5015131;28;20119;-64
2022/10/11 09:44:25;;;;;;;23.38;12.25;;;;;;;;;;5015576;28;20078;-67
2022/10/11 09:46:53;;;;;;;22.90;13.23;;;;;;;;;;5015108;28;20547;-65
2022/10/11 09:49:22;;;;;;;20.90;12.13;;;;;;;;;;5014392;28;20053;-64
2022/10/11 09:51:54;;;;;;;18.23;11.93;;;;;;;;;;5013145;28;20053;-64
2022/10/11 09:54:39;;;;;;;18.70;10.77;;;;;;;;;;4998438;28;20054;-65
2022/10/11 09:57:16;;;;;;;19.77;12.43;;;;;;;;;;5015650;28;20096;-65
2022/10/11 09:59:42;;;;;;;19.65;11.65;;;;;;;;;;5014343;28;20464;-65
2022/10/11 10:02:12;;;;;;;20.70;12.35;;;;;;;;;;5014899;28;20100;-66
2022/10/11 10:05:07;;;;;;;17.13;11.38;;;;;;;;;;5015035;28;20100;-65
2022/10/11 10:07:35;;;;;;;20.83;11.75;;;;;;;;;;5014942;28;20100;-66
2022/10/11 10:10:26;;;;;;;17.83;11.43;;;;;;;;;;4996976;28;20161;-64
2022/10/11 10:12:55;;;;;;;18.05;12.23;;;;;;;;;;5013583;28;20050;-65
2022/10/11 10:15:21;;;;;;;19.33;11.98;;;;;;;;;;4997602;28;20084;-65
2022/10/11 10:17:51;;;;;;;18.85;10.63;;;;;;;;;;5013327;28;20535;-66
2022/10/11 10:20:23;;;;;;;16.77;11.88;;;;;;;;;;5013393;28;20092;-64
2022/10/11 10:22:49;;;;;;;17.85;11.05;;;;;;;;;;5013489;28;20356;-65
2022/10/11 10:25:37;;;;;;;18.30;11.20;;;;;;;;;;4996742;28;20136;-66
2022/10/11 10:28:24;;;;;;;19.02;11.13;;;;;;;;;;5013135;28;20076;-64
2022/10/11 10:30:58;;;;;;;17.13;10.45;;;;;;;;;;5014562;28;20070;-64
2022/10/11 10:33:34;;;;;;;19.10;9.90;;;;;;;;;;5014235;28;20142;-65
2022/10/11 10:36:04;;;;;;;14.65;10.00;;;;;;;;;;4998303;28;20042;-65
2022/10/11 10:38:39;;;;;;;20.45;11.35;;;;;;;;;;4996906;28;20054;-65
2022/10/11 10:41:10;;;;;;;16.80;10.60;;;;;;;;;;4997414;28;20620;-64
2022/10/11 10:43:38;;;;;;;20.48;10.57;;;;;;;;;;5014255;28;20081;-64
2022/10/11 10:46:24;;;;;;;17.60;11.48;;;;;;;;;;5012757;28;20080;-64
2022/10/11 10:49:15;;;;;;;16.63;10.93;;;;;;;;;;5012500;28;20481;-65
2022/10/11 10:52:11;;;;;;;19.13;10.70;;;;;;;;;;5013602;28;20060;-64
2022/10/11 10:55:08;;;;;;;19.77;10.07;;;;;;;;;;5014278;28;20080;-65
2022/10/11 10:58:01;;;;;;;18.48;10.70;;;;;;;;;;5012776;28;20097;-66
2022/10/11 11:00:32;;;;;;;18.50;10.07;;;;;;;;;;5012843;28;20050;-65
2022/10/11 11:03:00;;;;;;;14.65;10.20;;;;;;;;;;4997077;28;20104;-66
2022/10/11 11:05:59;;;;;;;14.95;9.85;;;;;;;;;;5013899;28;20054;-65
2022/10/11 11:09:00;;;;;;;20.48;10.50;;;;;;;;;;5012458;28;20085;-65
2022/10/11 11:11:35;;;;;;;14.90;9.38;;;;;;;;;;5012800;28;20082;-65
2022/10/11 11:14:14;;;;;;;12.85;9.35;;;;;;;;;;5012508;28;20053;-65
2022/10/11 11:16:59;;;;;;;17.95;10.05;;;;;;;;;;5013620;28;20480;-64
2022/10/11 11:19:32;;;;;;;13.45;10.13;;;;;;;;;;5012017;28;20133;-65
2022/10/11 11:22:13;;;;;;;17.52;10.13;;;;;;;;;;5013730;28;20085;-65
2022/10/11 11:24:42;;;;;;;16.38;9.48;;;;;;;;;;5012380;28;20088;-66
2022/10/11 11:27:47;;;;;;;12.95;9.70;;;;;;;;;;5013482;28;20480;-65
2022/10/11 11:30:22;;;;;;;21.05;11.38;;;;;;;;;;5002198;28;20108;-65
2022/10/11 11:32:58;;;;;;;13.38;9.77;;;;;;;;;;4996727;28;20077;-64
2022/10/11 11:35:42;;;;;;;15.02;9.07;;;;;;;;;;5013182;28;20480;-65
2022/10/11 11:38:19;;;;;;;19.73;8.70;;;;;;;;;;4996632;28;20096;-65
2022/10/11 11:40:57;;;;;;;16.10;8.38;;;;;;;;;;5013166;28;20057;-65
2022/10/11 11:43:31;;;;;;;15.93;9.15;;;;;;;;;;4996330;28;20112;-66
2022/10/11 11:46:08;;;;;;;11.73;8.27;;;;;;;;;;5011764;28;20081;-66
2022/10/11 11:48:36;;;;;;;12.48;7.57;;;;;;;;;;4995751;28;20046;-65
2022/10/11 11:51:07;;;;;;;10.18;7.88;;;;;;;;;;5011781;28;20133;-65
2022/10/11 11:53:52;;;;;;;13.63;8.35;;;;;;;;;;5011998;28;20050;-65
2022/10/11 11:56:43;;;;;;;14.35;8.50;;;;;;;;;;5013656;28;20050;-66
2022/10/11 11:59:25;;;;;;;17.08;9.10;;;;;;;;;;5012629;28;20046;-66
2022/10/11 12:02:10;;;;;;;17.80;7.72;;;;;;;;;;5013553;28;20054;-66
2022/10/11 12:04:40;;;;;;;15.68;8.27;;;;;;;;;;5013082;28;20428;-66
2022/10/11 12:07:09;;;;;;;14.43;8.45;;;;;;;;;;4995716;28;20054;-65
2022/10/11 12:09:49;;;;;;;17.75;8.18;;;;;;;;;;5011066;28;20054;-65
2022/10/11 12:12:27;;;;;;;11.43;7.55;;;;;;;;;;5012582;28;20051;-64
2022/10/11 12:15:21;;;;;;;12.35;7.10;;;;;;;;;;5011357;28;20077;-66
2022/10/11 12:18:14;;;;;;;13.20;7.97;;;;;;;;;;5009433;28;20191;-65
2022/10/11 12:20:41;;;;;;;13.07;7.15;;;;;;;;;;5005730;28;20084;-66
2022/10/11 12:23:29;;;;;;;11.98;7.55;;;;;;;;;;4995097;28;20054;-66
2022/10/11 12:26:30;;;;;;;14.25;7.78;;;;;;;;;;5012056;28;20100;-65
2022/10/11 12:29:04;;;;;;;12.35;7.70;;;;;;;;;;5010333;28;20081;-66
2022/10/11 12:31:35;;;;;;;10.15;7.38;;;;;;;;;;5012111;28;20461;-66
2022/10/11 12:34:16;;;;;;;14.48;7.68;;;;;;;;;;5012283;28;20397;-66
2022/10/11 12:36:45;;;;;;;13.43;8.40;;;;;;;;;;5012341;28;20089;-67
2022/10/11 12:39:18;;;;;;;12.63;7.50;;;;;;;;;;4994422;28;20108;-65
2022/10/11 12:41:50;;;;;;;14.20;7.82;;;;;;;;;;5012285;28;20100;-66
2022/10/11 12:44:21;;;;;;;11.02;8.25;;;;;;;;;;5012051;28;20053;-66
2022/10/11 12:46:54;;;;;;;11.57;8.23;;;;;;;;;;5011714;28;20077;-66
2022/10/11 12:49:27;;;;;;;12.90;7.10;;;;;;;;;;5011389;28;20050;-66
2022/10/11 12:52:00;;;;;;;8.95;7.20;;;;;;;;;;5011681;28;20088;-66
2022/10/11 12:55:06;;;;;;;10.73;6.53;;;;;;;;;;5012107;28;20045;-66
2022/10/11 12:57:40;;;;;;;11.13;7.03;;;;;;;;;;5003860;28;20081;-65
2022/10/11 13:00:28;;;;;;;11.23;7.90;;;;;;;;;;5011736;28;20469;-67
2022/10/11 13:03:02;;;;;;;11.48;8.07;;;;;;;;;;5010818;28;20058;-66
2022/10/11 13:05:37;;;;;;;15.65;8.13;;;;;;;;;;4994713;28;20089;-66
2022/10/11 13:08:21;;;;;;;11.85;6.97;;;;;;;;;;5011632;28;20054;-65
2022/10/11 13:10:47;;;;;;;12.23;7.55;;;;;;;;;;5010780;28;20177;-64
2022/10/11 13:13:22;;;;;;;13.75;8.15;;;;;;;;;;5012171;28;20093;-65
2022/10/11 13:15:50;;;;;;;11.32;7.07;;;;;;;;;;4994649;28;20469;-65
2022/10/11 13:18:17;;;;;;;11.77;7.82;;;;;;;;;;5010332;28;20088;-65
2022/10/11 13:20:44;;;;;;;10.00;8.02;;;;;;;;;;5011707;28;20065;-64
2022/10/11 13:23:27;;;;;;;12.40;8.23;;;;;;;;;;5011803;28;20132;-65
2022/10/11 13:25:54;;;;;;;13.75;7.95;;;;;;;;;;5011634;28;20111;-65
2022/10/11 13:28:21;;;;;;;14.35;8.63;;;;;;;;;;5011184;28;20127;-64
2022/10/11 13:30:53;;;;;;;11.07;7.53;;;;;;;;;;4994219;28;20056;-64
2022/10/11 13:33:33;;;;;;;13.68;8.05;;;;;;;;;;5010555;28;20085;-65
2022/10/11 13:36:02;;;;;;;13.80;8.15;;;;;;;;;;4978452;28;20089;-65
2022/10/11 13:38:32;;;;;;;14.02;6.90;;;;;;;;;;4994375;28;20046;-66
2022/10/11 13:41:00;;;;;;;13.55;7.43;;;;;;;;;;5011472;28;20133;-64
2022/10/11 13:43:28;;;;;;;12.80;7.88;;;;;;;;;;5010637;28;20081;-64
2022/10/11 13:45:55;;;;;;;11.70;6.90;;;;;;;;;;5010352;28;20472;-64
2022/10/11 13:48:22;;;;;;;10.38;7.20;;;;;;;;;;4993857;28;20084;-64
2022/10/11 13:51:26;;;;;;;12.88;7.53;;;;;;;;;;5011555;28;20053;-64
2022/10/11 13:54:04;;;;;;;12.63;7.30;;;;;;;;;;5011748;28;20089;-65
2022/10/11 13:56:34;;;;;;;12.13;6.70;;;;;;;;;;5010473;28;20077;-65
2022/10/11 13:59:00;;;;;;;12.18;7.45;;;;;;;;;;4993374;28;20084;-64
2022/10/11 14:01:39;;;;;;;12.38;6.85;;;;;;;;;;5011430;28;20077;-64
2022/10/11 14:04:08;;;;;;;25.08;18.60;;;;;;;;;;5013099;28;20080;-65
2022/10/11 14:06:38;;;;;;;11.20;7.57;;;;;;;;;;5014926;28;20079;-66
2022/10/11 14:09:04;;;;;;;12.88;7.13;;;;;;;;;;5014396;28;20078;-65
2022/10/11 14:11:36;;;;;;;14.68;7.15;;;;;;;;;;5013709;28;20081;-65
2022/10/11 14:14:28;;;;;;;12.27;7.03;;;;;;;;;;5015030;28;20477;-65
2022/10/11 14:17:17;;;;;;;14.45;7.15;;;;;;;;;;5014902;28;20046;-66
2022/10/11 14:19:45;;;;;;;12.48;6.55;;;;;;;;;;5014055;28;20053;-65
2022/10/11 14:22:16;;;;;;;12.45;7.07;;;;;;;;;;5013458;28;20464;-65
2022/10/11 14:24:45;;;;;;;14.00;7.15;;;;;;;;;;5014523;28;20484;-65
2022/10/11 14:27:18;;;;;;;10.10;6.95;;;;;;;;;;5014507;28;20078;-65
2022/10/11 14:29:44;;;;;;;16.58;7.53;;;;;;;;;;5012897;28;20116;-65
2022/10/11 14:32:32;;;;;;;13.60;6.53;;;;;;;;;;5013564;28;20054;-65
2022/10/11 14:34:59;;;;;;;15.45;7.13;;;;;;;;;;5013498;28;20077;-65
2022/10/11 14:37:25;;;;;;;16.33;7.53;;;;;;;;;;5012989;28;20050;-65
2022/10/11 14:39:52;;;;;;;11.35;7.00;;;;;;;;;;5013639;28;20053;-66
2022/10/11 14:42:19;;;;;;;11.02;7.63;;;;;;;;;;5014827;28;20073;-65
2022/10/11 14:44:45;;;;;;;11.85;7.40;;;;;;;;;;5014306;28;20084;-65
2022/10/11 14:47:14;;;;;;;20.15;7.85;;;;;;;;;;5014045;28;20046;-65
2022/10/11 14:49:40;;;;;;;11.00;7.05;;;;;;;;;;5012181;28;20509;-65